Time;durP1;ratioP1;P1;durP2;ratioP2;P2;SDS_P1;SDS_P2;PMS_P1;PMS_P2;Temp;Humidity;BMP_temperature;BMP_pressure;BME280_temperature;BME280_humidity;BME280_pressure;Samples;Min_cycle;Max_cycle;Signal;HPM_P1;HPM_P2
2022/11/15 05:22:37;;;;;;;6.20;4.07;;;;;;;7.96;100.00;99771.31;5109614;27;20323;-72
2022/11/15 05:25:22;;;;;;;8.50;3.95;;;;;;;7.96;100.00;99767.84;5109566;28;20127;-71
2022/11/15 05:28:06;;;;;;;7.47;4.03;;;;;;;7.97;100.00;99777.44;5109594;28;20047;-72
2022/11/15 05:30:50;;;;;;;5.40;3.92;;;;;;;7.99;100.00;99773.63;5109313;28;20062;-72
2022/11/15 05:33:36;;;;;;;5.18;3.72;;;;;;;8.00;100.00;99777.91;5109874;28;20415;-72
2022/11/15 05:36:40;;;;;;;6.18;3.75;;;;;;;7.98;100.00;99764.00;5109262;28;20177;-72
2022/11/15 05:39:25;;;;;;;7.78;4.28;;;;;;;7.96;100.00;99758.06;5109411;28;20135;-70
2022/11/15 05:42:12;;;;;;;8.57;4.25;;;;;;;7.96;100.00;99767.84;5109064;28;20138;-71
2022/11/15 05:44:58;;;;;;;6.97;4.40;;;;;;;7.97;100.00;99774.78;5109361;28;20105;-71
2022/11/15 05:47:42;;;;;;;7.78;4.00;;;;;;;7.94;100.00;99761.84;5109231;28;20343;-70
2022/11/15 05:50:27;;;;;;;8.75;4.88;;;;;;;7.90;100.00;99756.06;5108700;28;20054;-71
2022/11/15 05:53:14;;;;;;;5.80;3.80;;;;;;;7.90;100.00;99758.72;5109224;28;20058;-71
2022/11/15 05:55:58;;;;;;;7.28;4.75;;;;;;;7.85;100.00;99767.16;5109269;28;20134;-71
2022/11/15 05:58:43;;;;;;;8.85;4.78;;;;;;;7.78;100.00;99768.84;5109314;28;20070;-70
2022/11/15 06:01:27;;;;;;;6.13;3.92;;;;;;;7.64;100.00;99772.16;5109020;28;20050;-70
2022/11/15 06:04:11;;;;;;;7.03;3.35;;;;;;;7.69;100.00;99767.16;5108939;28;20093;-71
2022/11/15 06:06:55;;;;;;;6.50;3.90;;;;;;;7.67;100.00;99777.13;5108829;28;20055;-71
2022/11/15 06:09:39;;;;;;;5.95;3.75;;;;;;;7.70;100.00;99765.38;5108947;28;20066;-71
2022/11/15 06:12:23;;;;;;;7.10;4.15;;;;;;;7.62;100.00;99763.53;5108591;28;20051;-71
2022/11/15 06:15:07;;;;;;;8.50;5.32;;;;;;;7.67;100.00;99755.91;5108612;28;20116;-71
2022/11/15 06:17:51;;;;;;;7.25;4.25;;;;;;;7.64;100.00;99756.25;5108997;28;20054;-73
2022/11/15 06:20:35;;;;;;;8.38;4.25;;;;;;;7.62;100.00;99745.78;5108408;28;20062;-71
2022/11/15 06:23:19;;;;;;;7.85;4.57;;;;;;;7.62;100.00;99756.41;5108574;28;20096;-70
2022/11/15 06:26:03;;;;;;;7.28;4.25;;;;;;;7.70;100.00;99755.59;5108645;28;20137;-70
2022/11/15 06:28:48;;;;;;;7.45;4.45;;;;;;;7.69;100.00;99745.13;5108530;28;20117;-70
2022/11/15 06:31:33;;;;;;;8.60;4.88;;;;;;;7.70;100.00;99749.47;5108006;28;20055;-70
2022/11/15 06:34:17;;;;;;;6.95;4.57;;;;;;;7.68;100.00;99741.66;5094396;28;20059;-70
2022/11/15 06:37:02;;;;;;;7.20;3.95;;;;;;;7.72;100.00;99742.16;5094615;28;20523;-61
2022/11/15 06:39:46;;;;;;;5.40;3.58;;;;;;;7.70;100.00;99720.31;5094789;28;20082;-61
2022/11/15 06:42:30;;;;;;;7.57;3.67;;;;;;;7.67;100.00;99721.44;5094325;28;20077;-60
2022/11/15 06:45:13;;;;;;;5.20;3.53;;;;;;;7.76;100.00;99731.06;5094320;28;20058;-62
2022/11/15 06:47:58;;;;;;;9.77;4.50;;;;;;;7.80;100.00;99736.84;5094605;28;20520;-62
2022/11/15 06:50:42;;;;;;;4.78;3.17;;;;;;;7.87;100.00;99751.09;5093928;28;20416;-62
2022/11/15 06:53:26;;;;;;;4.80;3.35;;;;;;;7.80;100.00;99750.94;5094199;28;20121;-63
2022/11/15 06:56:10;;;;;;;8.55;3.78;;;;;;;7.84;100.00;99754.91;5094396;28;20197;-62
2022/11/15 06:58:55;;;;;;;7.65;4.35;;;;;;;7.88;100.00;99752.72;5094125;28;20123;-63
2022/11/15 07:01:39;;;;;;;5.45;3.92;;;;;;;7.89;100.00;99747.28;5093691;28;20055;-63
2022/11/15 07:04:23;;;;;;;6.97;3.78;;;;;;;7.93;100.00;99763.66;5093982;28;20416;-72
2022/11/15 07:07:07;;;;;;;9.27;6.25;;;;;;;7.98;100.00;99760.53;5093952;28;20566;-72
2022/11/15 07:09:50;;;;;;;8.77;4.90;;;;;;;8.02;100.00;99760.03;5094069;28;20105;-71
2022/11/15 07:12:34;;;;;;;9.13;4.93;;;;;;;8.11;100.00;99771.44;5093772;28;20055;-71
2022/11/15 07:15:21;;;;;;;8.98;3.80;;;;;;;8.04;100.00;99759.84;5093764;28;20059;-71
2022/11/15 07:18:05;;;;;;;4.45;3.47;;;;;;;8.05;100.00;99767.63;5093745;28;20090;-71
2022/11/15 07:20:49;;;;;;;6.90;4.15;;;;;;;8.10;100.00;99775.94;5093339;28;20112;-71
2022/11/15 07:23:33;;;;;;;5.75;4.07;;;;;;;8.16;100.00;99769.13;5093981;28;20051;-71
2022/11/15 07:26:16;;;;;;;7.65;4.18;;;;;;;8.18;100.00;99772.44;5093622;28;20412;-72
2022/11/15 07:29:00;;;;;;;7.78;4.32;;;;;;;8.23;100.00;99767.44;5093780;28;20047;-72
2022/11/15 07:31:44;;;;;;;5.90;3.25;;;;;;;8.25;100.00;99776.06;5093113;28;20051;-71
2022/11/15 07:34:28;;;;;;;6.07;3.70;;;;;;;8.27;100.00;99763.44;5093387;28;20059;-71
2022/11/15 07:37:12;;;;;;;7.00;4.20;;;;;;;8.30;100.00;99765.75;5093200;28;20058;-71
2022/11/15 07:39:56;;;;;;;8.27;4.20;;;;;;;8.31;100.00;99770.06;5093226;28;20051;-71
2022/11/15 07:42:52;;;;;;;4.50;3.35;;;;;;;8.38;100.00;99767.59;5093380;28;20133;-71
2022/11/15 07:45:43;;;;;;;4.07;3.47;;;;;;;8.43;100.00;99767.91;5093298;28;20055;-71
2022/11/15 07:48:27;;;;;;;5.78;3.70;;;;;;;8.42;100.00;99763.63;5092978;28;20078;-71
2022/11/15 07:51:13;;;;;;;4.03;3.00;;;;;;;8.49;100.00;99766.41;5092744;28;20432;-71
2022/11/15 07:53:57;;;;;;;4.32;2.70;;;;;;;8.50;100.00;99758.25;5093285;28;20047;-71
2022/11/15 07:56:41;;;;;;;5.25;3.60;;;;;;;8.54;100.00;99756.94;5092863;28;20079;-71
2022/11/15 07:59:25;;;;;;;5.68;3.15;;;;;;;8.59;100.00;99753.75;5092815;28;20105;-71
2022/11/15 08:02:09;;;;;;;5.60;3.72;;;;;;;8.66;100.00;99762.66;5092380;28;20109;-71
2022/11/15 08:04:53;;;;;;;6.07;3.30;;;;;;;8.71;100.00;99755.03;5092905;28;20054;-71
2022/11/15 08:07:38;;;;;;;6.85;3.22;;;;;;;8.81;100.00;99757.47;5092704;28;20055;-71
2022/11/15 08:10:22;;;;;;;5.55;3.00;;;;;;;8.89;100.00;99763.56;5092614;28;20582;-71
2022/11/15 08:13:09;;;;;;;6.28;3.42;;;;;;;8.98;100.00;99759.84;5093002;28;20043;-70
2022/11/15 08:16:01;;;;;;;3.92;2.90;;;;;;;9.10;100.00;99762.13;5092560;28;20083;-71
2022/11/15 08:18:45;;;;;;;5.25;2.35;;;;;;;9.20;100.00;99760.09;5092510;28;20051;-70
2022/11/15 08:21:28;;;;;;;5.88;3.13;;;;;;;9.30;100.00;99760.66;5092113;28;20074;-71
2022/11/15 08:24:12;;;;;;;4.03;2.67;;;;;;;9.42;100.00;99758.44;5092995;28;20055;-70
2022/11/15 08:26:56;;;;;;;4.47;3.13;;;;;;;9.52;100.00;99751.88;5091661;28;20409;-70
2022/11/15 08:29:45;;;;;;;3.95;2.92;;;;;;;9.58;100.00;99749.47;5092445;28;20140;-71
2022/11/15 08:32:30;;;;;;;7.75;3.65;;;;;;;9.66;100.00;99744.94;5091990;28;20097;-71
2022/11/15 08:35:15;;;;;;;8.07;3.65;;;;;;;9.76;100.00;99744.69;5092126;28;20054;-70
2022/11/15 08:37:59;;;;;;;6.95;3.85;;;;;;;9.81;100.00;99741.50;5092487;28;20100;-71
2022/11/15 08:40:43;;;;;;;7.10;4.10;;;;;;;9.89;100.00;99736.91;5092189;28;20047;-71
2022/11/15 08:43:27;;;;;;;5.25;3.50;;;;;;;9.91;100.00;99734.91;5092408;28;20424;-71
2022/11/15 08:46:12;;;;;;;5.78;3.08;;;;;;;10.03;100.00;99735.28;5092245;28;20594;-70
2022/11/15 08:48:56;;;;;;;4.50;2.97;;;;;;;10.10;100.00;99744.19;5092291;28;20059;-71
2022/11/15 08:51:40;;;;;;;3.88;2.83;;;;;;;10.18;100.00;99732.66;5091576;28;20051;-71
2022/11/15 08:54:24;;;;;;;4.30;2.97;;;;;;;10.29;100.00;99727.69;5091956;28;20105;-71
2022/11/15 08:57:09;;;;;;;4.25;2.40;;;;;;;10.29;100.00;99719.72;5091937;28;20050;-70
2022/11/15 08:59:53;;;;;;;4.28;2.40;;;;;;;10.41;100.00;99722.75;5091946;28;20526;-71
2022/11/15 09:02:38;;;;;;;3.33;2.40;;;;;;;10.46;100.00;99728.34;5092146;28;20164;-71
2022/11/15 09:05:22;;;;;;;4.95;2.63;;;;;;;10.49;100.00;99727.97;5091848;28;20066;-71
2022/11/15 09:08:06;;;;;;;5.07;2.55;;;;;;;10.52;100.00;99726.78;5091891;28;20054;-71
2022/11/15 09:10:51;;;;;;;4.28;2.75;;;;;;;10.55;100.00;99724.56;5091443;28;20132;-70
2022/11/15 09:13:39;;;;;;;6.18;2.40;;;;;;;10.62;100.00;99721.16;5092004;28;20137;-71
2022/11/15 09:16:23;;;;;;;5.63;3.15;;;;;;;10.67;100.00;99718.75;5091713;28;20577;-71
2022/11/15 09:19:07;;;;;;;2.33;2.08;;;;;;;10.69;100.00;99716.72;5091902;28;20519;-70
2022/11/15 09:21:51;;;;;;;4.45;2.92;;;;;;;10.72;100.00;99708.38;5091618;28;20043;-71
2022/11/15 09:24:35;;;;;;;3.67;2.78;;;;;;;10.83;100.00;99713.22;5091738;28;20073;-71
2022/11/15 09:27:19;;;;;;;4.30;2.92;;;;;;;10.85;100.00;99720.00;5091416;28;20553;-71
2022/11/15 09:30:04;;;;;;;3.13;2.17;;;;;;;10.88;100.00;99724.94;5091684;28;20543;-71
2022/11/15 09:32:48;;;;;;;4.03;2.67;;;;;;;10.88;100.00;99716.13;5091582;28;20051;-71
2022/11/15 09:35:32;;;;;;;3.22;2.17;;;;;;;10.84;100.00;99702.38;5091698;28;20086;-71
2022/11/15 09:38:16;;;;;;;3.95;2.88;;;;;;;10.92;100.00;99714.75;5091504;28;20054;-71
2022/11/15 09:41:29;;;;;;;5.20;2.30;;;;;;;10.88;100.00;99708.16;5091135;28;20089;-71
2022/11/15 09:44:51;;;;;;;4.72;3.40;;;;;;;11.00;100.00;99711.97;5091410;28;20043;-71
2022/11/15 09:47:35;;;;;;;4.65;2.40;;;;;;;11.07;100.00;99715.53;5069039;28;20043;-71
2022/11/15 09:50:47;;;;;;;4.35;3.28;;;;;;;11.10;100.00;99712.50;5090685;28;20050;-71
2022/11/15 09:53:22;;;;;;;3.60;2.72;;;;;;;11.11;100.00;99705.31;5091364;28;20036;-71
2022/11/15 09:55:58;;;;;;;3.85;2.35;;;;;;;11.12;100.00;99706.97;5090190;28;20028;-71
2022/11/15 09:58:36;;;;;;;4.70;2.45;;;;;;;11.18;100.00;99706.22;5091408;28;20043;-71
2022/11/15 10:01:07;;;;;;;4.65;2.58;;;;;;;11.18;100.00;99702.72;5090974;28;20043;-71
2022/11/15 10:03:41;;;;;;;4.43;2.50;;;;;;;11.16;100.00;99699.44;5091321;28;20044;-71
2022/11/15 10:06:16;;;;;;;4.03;2.40;;;;;;;11.18;100.00;99703.56;5089906;28;20036;-71
2022/11/15 10:09:07;;;;;;;4.00;2.50;;;;;;;11.23;100.00;99703.00;5093801;28;20453;-69
2022/11/15 10:11:36;;;;;;;4.40;1.85;;;;;;;11.22;100.00;99702.16;5094680;28;20119;-71
2022/11/15 10:14:10;;;;;;;4.20;2.22;;;;;;;11.26;100.00;99713.25;5094965;28;20040;-72
2022/11/15 10:16:48;;;;;;;4.32;2.25;;;;;;;11.27;100.00;99713.06;5094851;28;20028;-69
2022/11/15 10:19:16;;;;;;;3.92;2.40;;;;;;;11.30;100.00;99706.53;5094867;28;20024;-71
2022/11/15 10:22:19;;;;;;;3.40;2.08;;;;;;;11.29;100.00;99708.38;5094364;28;20027;-71
2022/11/15 10:24:45;;;;;;;5.63;2.83;;;;;;;11.30;100.00;99710.03;5094996;28;20366;-71
2022/11/15 10:27:16;;;;;;;4.72;2.70;;;;;;;11.33;100.00;99709.63;5094663;28;20054;-71
2022/11/15 10:29:47;;;;;;;5.93;2.85;;;;;;;11.34;100.00;99710.47;5095079;28;20464;-71
2022/11/15 10:32:14;;;;;;;3.08;2.42;;;;;;;11.34;100.00;99705.13;5094326;28;20036;-71
2022/11/15 10:34:40;;;;;;;4.32;2.70;;;;;;;11.32;100.00;99701.84;5094579;28;20481;-71
2022/11/15 10:37:05;;;;;;;5.20;2.88;;;;;;;11.33;100.00;99692.81;5094493;28;20058;-71
2022/11/15 10:39:33;;;;;;;4.03;2.70;;;;;;;11.33;100.00;99695.47;5094563;28;20574;-71
2022/11/15 10:42:15;;;;;;;2.88;2.28;;;;;;;11.27;100.00;99685.56;5094207;28;20564;-71
2022/11/15 10:44:43;;;;;;;4.05;2.70;;;;;;;11.36;100.00;99690.59;5094383;28;20547;-70
2022/11/15 10:47:30;;;;;;;3.72;2.70;;;;;;;11.35;100.00;99690.81;5094383;28;20032;-70
2022/11/15 10:50:30;;;;;;;6.82;3.17;;;;;;;11.35;100.00;99682.81;5094194;28;20036;-70
2022/11/15 10:52:55;;;;;;;4.25;2.83;;;;;;;11.38;100.00;99672.56;5089886;28;20044;-70
2022/11/15 10:55:25;;;;;;;4.63;3.17;;;;;;;11.42;100.00;99665.00;5093009;28;20109;-71
2022/11/15 10:57:58;;;;;;;5.63;3.35;;;;;;;11.48;100.00;99663.41;5094152;28;20079;-70
2022/11/15 11:00:31;;;;;;;6.22;3.00;;;;;;;11.53;100.00;99651.13;5093927;28;20044;-70
2022/11/15 11:03:04;;;;;;;4.85;3.25;;;;;;;11.62;100.00;99649.97;5094047;28;20040;-70
2022/11/15 11:05:38;;;;;;;5.25;3.15;;;;;;;11.72;100.00;99646.13;5093863;28;20051;-70
2022/11/15 11:08:05;;;;;;;6.25;3.00;;;;;;;11.83;100.00;99640.28;5093958;28;20036;-71
2022/11/15 11:10:33;;;;;;;4.63;2.90;;;;;;;11.92;100.00;99631.09;5093569;28;20065;-70
2022/11/15 11:13:35;;;;;;;4.30;2.80;;;;;;;12.01;100.00;99626.44;5093770;28;20324;-71
2022/11/15 11:16:15;;;;;;;4.38;3.05;;;;;;;12.02;100.00;99626.25;5070997;28;20495;-71
2022/11/15 11:18:53;;;;;;;5.13;2.88;;;;;;;12.04;100.00;99616.19;5088605;28;20048;-70
2022/11/15 11:21:44;;;;;;;5.05;2.80;;;;;;;12.05;100.00;99607.16;5091995;28;20032;-71
2022/11/15 11:24:32;;;;;;;6.60;3.38;;;;;;;12.06;100.00;99611.50;5093519;28;20028;-71
2022/11/15 11:27:13;;;;;;;;;;;;;;;12.09;100.00;99599.59;5094029;28;20032;-71
2022/11/15 11:29:56;;;;;;;6.30;3.05;;;;;;;12.08;100.00;99588.09;5093575;28;19955;-70
2022/11/15 11:32:34;;;;;;;4.35;3.10;;;;;;;12.12;100.00;99591.16;5093205;28;20036;-70
2022/11/15 11:35:19;;;;;;;3.58;2.85;;;;;;;12.15;100.00;99580.09;5093860;28;20166;-71
2022/11/15 11:38:06;;;;;;;5.78;3.10;;;;;;;12.16;100.00;99571.88;5093426;28;20548;-71
2022/11/15 11:40:34;;;;;;;;;;;;;;;12.22;100.00;99557.75;5093565;28;20114;-71
2022/11/15 11:43:11;;;;;;;4.38;2.45;;;;;;;12.30;100.00;99562.06;5093325;28;19920;-71
2022/11/15 11:45:55;;;;;;;3.80;2.60;;;;;;;12.32;100.00;99553.84;5093221;28;20032;-71
2022/11/15 11:48:26;;;;;;;3.95;2.53;;;;;;;12.35;100.00;99553.47;5093369;28;20097;-71
2022/11/15 11:50:53;;;;;;;3.60;2.40;;;;;;;12.33;100.00;99551.00;5092811;28;20511;-71
2022/11/15 11:53:30;;;;;;;8.45;3.20;;;;;;;12.35;100.00;99553.47;5091926;28;20040;-71
2022/11/15 11:56:02;;;;;;;4.18;2.85;;;;;;;12.34;100.00;99551.81;5093069;28;20067;-71
2022/11/15 11:58:38;;;;;;;5.53;2.08;;;;;;;12.27;100.00;99546.47;5093416;28;20123;-71
2022/11/15 12:01:09;;;;;;;4.32;2.42;;;;;;;12.27;100.00;99550.97;5092835;28;20032;-71
2022/11/15 12:03:54;;;;;;;3.97;2.20;;;;;;;12.27;100.00;99543.78;5091779;28;20093;-71
2022/11/15 12:06:40;;;;;;;3.65;2.30;;;;;;;12.31;100.00;99541.53;5092837;28;20447;-71
2022/11/15 12:09:27;;;;;;;5.03;2.40;;;;;;;12.36;100.00;99534.56;5092790;28;20400;-71
2022/11/15 12:12:18;;;;;;;;;;;;;;;12.38;100.00;99537.84;5092808;28;20101;-70
2022/11/15 12:15:12;;;;;;;4.53;2.42;;;;;;;12.39;100.00;99536.03;5091327;28;19923;-70
2022/11/15 12:17:40;;;;;;;4.43;2.40;;;;;;;12.38;100.00;99524.50;5092740;28;20068;-72
2022/11/15 12:20:22;;;;;;;4.00;2.50;;;;;;;12.44;100.00;99533.53;5092570;28;20165;-73
2022/11/15 12:23:04;;;;;;;2.90;2.25;;;;;;;12.43;100.00;99524.72;5092613;28;20032;-73
2022/11/15 12:25:55;;;;;;;3.13;2.58;;;;;;;12.49;100.00;99512.41;5092485;28;20558;-73
2022/11/15 12:28:49;;;;;;;4.00;2.75;;;;;;;12.63;100.00;99511.38;5092526;28;20126;-73
2022/11/15 12:31:36;;;;;;;5.55;2.75;;;;;;;12.70;100.00;99504.19;5090415;28;20181;-73
2022/11/15 12:34:34;;;;;;;4.38;2.58;;;;;;;12.88;100.00;99494.75;5092366;28;20158;-73
2022/11/15 12:36:59;;;;;;;4.32;2.30;;;;;;;13.08;100.00;99495.56;5092275;28;20485;-73
2022/11/15 12:40:03;;;;;;;4.32;2.17;;;;;;;13.30;100.00;99491.66;5092440;28;20101;-72
2022/11/15 12:42:40;;;;;;;3.53;2.40;;;;;;;13.48;100.00;99482.13;5091932;28;20102;-73
2022/11/15 12:45:27;;;;;;;3.33;2.22;;;;;;;13.68;100.00;99479.38;5092269;28;20047;-73
2022/11/15 12:47:53;;;;;;;2.83;2.33;;;;;;;13.90;100.00;99479.94;5092140;28;20080;-73
2022/11/15 12:50:50;;;;;;;4.90;2.42;;;;;;;14.01;100.00;99480.06;5091759;28;20127;-73
2022/11/15 12:53:24;;;;;;;;;;;;;;;14.08;100.00;99472.84;5092461;28;20089;-73
2022/11/15 12:56:09;;;;;;;3.13;2.00;;;;;;;14.18;100.00;99468.84;5091806;28;20438;-72
2022/11/15 12:58:41;;;;;;;2.45;2.15;;;;;;;14.21;100.00;99465.72;5092044;28;20048;-73
2022/11/15 13:01:08;;;;;;;3.15;2.33;;;;;;;14.27;100.00;99462.19;5091778;28;20035;-73
2022/11/15 13:03:33;;;;;;;1.90;1.60;;;;;;;14.33;100.00;99454.09;5092024;28;20032;-73
2022/11/15 13:06:02;;;;;;;4.38;2.05;;;;;;;14.37;99.73;99454.50;5091799;28;20485;-73
2022/11/15 13:08:47;;;;;;;4.10;2.38;;;;;;;14.47;99.46;99440.66;5092140;28;20028;-72
2022/11/15 13:11:48;;;;;;;2.47;1.80;;;;;;;14.49;97.61;99435.91;5091756;28;20036;-72
2022/11/15 13:14:44;;;;;;;2.60;2.10;;;;;;;14.54;96.63;99428.88;5091873;28;20114;-72
2022/11/15 13:17:16;;;;;;;3.08;2.20;;;;;;;14.61;96.57;99426.94;5091800;28;20085;-72
2022/11/15 13:19:42;;;;;;;4.55;2.42;;;;;;;14.26;98.16;99423.06;5091672;28;20035;-73
2022/11/15 13:24:56;;;;;;;4.35;2.25;;;;;;;14.57;96.48;99411.50;5091619;28;20036;-73
2022/11/15 13:27:22;;;;;;;4.35;2.03;;;;;;;14.58;95.86;99407.78;5091551;28;20040;-73
2022/11/15 13:29:47;;;;;;;3.95;2.38;;;;;;;14.62;95.29;99409.00;5091057;28;20035;-73
2022/11/15 13:32:15;;;;;;;2.90;2.05;;;;;;;14.56;95.57;99399.97;5091161;28;20447;-73
2022/11/15 13:34:51;;;;;;;3.80;2.60;;;;;;;14.61;95.37;99399.31;5091716;28;20046;-73
2022/11/15 13:37:19;;;;;;;2.80;1.88;;;;;;;14.54;94.81;99402.06;5090251;28;20085;-73
2022/11/15 13:39:45;;;;;;;3.22;1.95;;;;;;;14.54;94.95;99394.03;5090246;28;20043;-74
2022/11/15 13:42:16;;;;;;;3.55;2.10;;;;;;;14.52;96.09;99393.41;5090182;28;20032;-74
2022/11/15 13:44:55;;;;;;;2.40;1.73;;;;;;;14.36;95.27;99383.22;5095600;28;20064;-74
2022/11/15 13:47:21;;;;;;;1.58;1.30;;;;;;;14.43;95.63;99385.84;5095470;28;20049;-73
2022/11/15 13:49:46;;;;;;;2.55;1.65;;;;;;;14.41;95.19;99380.72;5095515;28;20107;-74
2022/11/15 13:52:16;;;;;;;3.63;1.73;;;;;;;14.39;94.78;99375.53;5095179;28;20036;-73
2022/11/15 13:54:54;;;;;;;2.72;1.25;;;;;;;14.37;94.70;99371.47;5095308;28;20032;-74
2022/11/15 13:57:25;;;;;;;2.58;1.60;;;;;;;14.31;94.72;99375.81;5095403;28;20032;-74
2022/11/15 14:00:00;;;;;;;2.45;1.73;;;;;;;14.25;94.02;99360.63;5094082;28;20085;-73
2022/11/15 14:02:32;;;;;;;4.30;1.90;;;;;;;14.13;94.23;99355.16;5093568;28;20052;-73
2022/11/15 14:04:59;;;;;;;3.10;1.67;;;;;;;14.12;95.14;99361.56;5094909;28;20032;-73
2022/11/15 14:07:30;;;;;;;3.70;1.58;;;;;;;14.05;95.57;99343.91;5095151;28;20549;-73
2022/11/15 14:09:56;;;;;;;1.98;1.70;;;;;;;14.02;95.91;99341.66;5095046;28;20040;-74
2022/11/15 14:12:31;;;;;;;2.08;1.58;;;;;;;14.01;95.64;99318.59;5094848;28;20131;-74
2022/11/15 14:14:58;;;;;;;3.38;1.67;;;;;;;13.98;96.47;99313.69;5095070;28;20384;-73
2022/11/15 14:17:29;;;;;;;3.55;2.17;;;;;;;13.95;97.42;99322.13;5095080;28;20032;-74
2022/11/15 14:19:57;;;;;;;3.33;1.80;;;;;;;13.90;97.93;99321.97;5094799;28;20028;-74
2022/11/15 14:22:28;;;;;;;2.60;1.70;;;;;;;13.89;98.21;99317.63;5094471;28;20034;-73
2022/11/15 14:25:28;;;;;;;2.58;1.65;;;;;;;13.83;99.26;99308.66;5094890;28;20089;-74
2022/11/15 14:28:18;;;;;;;2.78;1.50;;;;;;;13.83;97.64;99305.97;5094805;28;20535;-74
2022/11/15 14:30:46;;;;;;;2.45;1.65;;;;;;;13.84;98.84;99303.06;5094421;28;20032;-74
2022/11/15 14:33:32;;;;;;;3.65;2.15;;;;;;;13.84;99.25;99305.75;5094760;28;20403;-74
2022/11/15 14:36:06;;;;;;;2.97;1.73;;;;;;;13.83;99.11;99298.75;5094553;28;20028;-74
2022/11/15 14:38:31;;;;;;;3.40;1.92;;;;;;;13.83;99.34;99297.94;5094666;28;20032;-74
2022/11/15 14:40:57;;;;;;;4.03;2.03;;;;;;;13.82;98.58;99293.59;5094260;28;20464;-74
2022/11/15 14:43:22;;;;;;;2.10;1.63;;;;;;;13.69;98.15;99299.88;5094509;28;20489;-73
2022/11/15 14:45:47;;;;;;;3.60;2.50;;;;;;;13.73;99.71;99293.03;5093000;28;20036;-74
2022/11/15 14:48:13;;;;;;;2.88;1.90;;;;;;;13.69;100.00;99286.50;5094409;28;20476;-73
2022/11/15 14:50:39;;;;;;;4.00;2.00;;;;;;;13.58;100.00;99284.53;5093860;28;20035;-74
2022/11/15 14:53:05;;;;;;;2.83;1.63;;;;;;;13.61;100.00;99286.75;5093808;28;20050;-73
2022/11/15 14:55:35;;;;;;;4.00;2.17;;;;;;;13.60;100.00;99276.28;5094204;28;20075;-74
2022/11/15 14:58:07;;;;;;;4.30;1.80;;;;;;;13.51;100.00;99259.66;5094468;28;20075;-74
2022/11/15 15:00:34;;;;;;;7.15;2.60;;;;;;;13.55;100.00;99268.88;5092871;28;20044;-74
2022/11/15 15:03:00;;;;;;;4.13;2.00;;;;;;;13.49;100.00;99257.19;5094217;28;20040;-74
2022/11/15 15:05:32;;;;;;;3.35;1.70;;;;;;;13.45;100.00;99257.84;5094080;28;20097;-74
2022/11/15 15:07:57;;;;;;;2.65;2.10;;;;;;;13.46;100.00;99249.59;5094407;28;20111;-73
2022/11/15 15:10:32;;;;;;;3.38;1.98;;;;;;;13.47;100.00;99247.75;5094750;28;20429;-74
2022/11/15 15:12:57;;;;;;;5.88;2.45;;;;;;;13.49;100.00;99246.47;5095836;28;20044;-74
2022/11/15 15:15:31;;;;;;;3.17;2.08;;;;;;;13.49;100.00;99243.00;5094416;28;20031;-74
2022/11/15 15:17:57;;;;;;;2.65;1.83;;;;;;;13.48;100.00;99244.84;5093639;28;20067;-74
2022/11/15 15:20:23;;;;;;;4.32;2.20;;;;;;;13.47;100.00;99240.53;5093529;28;20063;-75
2022/11/15 15:22:48;;;;;;;3.20;2.08;;;;;;;13.43;100.00;99230.47;5093708;28;20040;-74
2022/11/15 15:25:28;;;;;;;3.45;2.13;;;;;;;13.45;100.00;99226.56;5093619;28;20036;-74
2022/11/15 15:27:55;;;;;;;2.53;1.90;;;;;;;13.47;100.00;99223.66;5093548;28;20063;-74
2022/11/15 15:30:22;;;;;;;3.10;1.95;;;;;;;13.47;100.00;99223.66;5093351;28;20032;-74
2022/11/15 15:32:47;;;;;;;3.20;2.13;;;;;;;13.45;100.00;99226.56;5093508;28;20032;-73
2022/11/15 15:35:14;;;;;;;6.78;3.92;;;;;;;13.40;100.00;99213.00;5093367;28;20446;-75
2022/11/15 15:37:41;;;;;;;11.10;5.63;;;;;;;13.38;100.00;99212.41;5093395;28;20058;-74
2022/11/15 15:40:21;;;;;;;14.80;7.93;;;;;;;13.39;100.00;99211.38;5093174;28;20296;-74
2022/11/15 15:42:48;;;;;;;11.20;5.40;;;;;;;13.34;100.00;99210.38;5093332;28;20089;-74
2022/11/15 15:45:15;;;;;;;4.88;2.95;;;;;;;13.32;100.00;99199.91;5093173;28;20035;-74
2022/11/15 15:47:41;;;;;;;5.53;2.47;;;;;;;13.29;100.00;99198.47;5093080;28;20032;-74
2022/11/15 15:50:28;;;;;;;4.65;2.60;;;;;;;13.26;100.00;99198.91;5093421;28;20398;-74
2022/11/15 15:52:56;;;;;;;3.00;2.05;;;;;;;13.21;100.00;99201.41;5092977;28;20036;-74
2022/11/15 15:55:22;;;;;;;4.15;2.45;;;;;;;13.18;100.00;99196.47;5093153;28;20082;-74
2022/11/15 15:57:48;;;;;;;7.22;3.00;;;;;;;13.13;100.00;99190.94;5091724;28;20067;-74
2022/11/15 16:00:14;;;;;;;3.65;2.58;;;;;;;13.07;100.00;99189.13;5092707;28;20043;-75
2022/11/15 16:02:40;;;;;;;5.25;2.53;;;;;;;13.01;100.00;99177.44;5092883;28;20078;-74
2022/11/15 16:05:06;;;;;;;4.57;2.78;;;;;;;12.98;100.00;99183.22;5092031;28;20089;-74
2022/11/15 16:07:31;;;;;;;3.95;2.80;;;;;;;12.79;100.00;99173.47;5092739;28;20036;-74
2022/11/15 16:10:00;;;;;;;5.20;2.80;;;;;;;12.85;100.00;99177.13;5092708;28;20026;-74
2022/11/15 16:12:29;;;;;;;4.68;2.92;;;;;;;12.81;100.00;99179.41;5092762;28;20136;-74
2022/11/15 16:14:54;;;;;;;5.40;2.45;;;;;;;12.76;100.00;99172.00;5091478;28;20036;-74
2022/11/15 16:17:22;;;;;;;4.50;2.65;;;;;;;12.75;100.00;99170.38;5091360;28;20036;-75
2022/11/15 16:19:48;;;;;;;4.00;2.53;;;;;;;12.72;100.00;99168.16;5092544;28;20039;-75
2022/11/15 16:22:13;;;;;;;5.50;2.78;;;;;;;12.65;100.00;99156.69;5092128;28;20396;-74
2022/11/15 16:24:38;;;;;;;5.20;2.72;;;;;;;12.65;100.00;99153.16;5092588;28;20043;-74
2022/11/15 16:27:04;;;;;;;3.72;2.25;;;;;;;12.63;100.00;99153.38;5092415;28;20087;-74
2022/11/15 16:29:29;;;;;;;3.28;2.30;;;;;;;12.59;100.00;99144.16;5092463;28;20047;-74
2022/11/15 16:31:55;;;;;;;4.25;2.10;;;;;;;12.50;100.00;99140.91;5092184;28;20044;-74
2022/11/15 16:34:21;;;;;;;3.30;2.13;;;;;;;12.54;100.00;99146.66;5092459;28;20109;-74
2022/11/15 16:36:47;;;;;;;5.32;2.60;;;;;;;12.51;100.00;99139.03;5092180;28;20036;-73
2022/11/15 16:39:13;;;;;;;3.95;2.42;;;;;;;12.52;100.00;99135.38;5091024;28;20036;-74
2022/11/15 16:41:39;;;;;;;3.58;3.05;;;;;;;12.47;100.00;99129.84;5092099;28;20028;-70
2022/11/15 16:44:05;;;;;;;4.50;2.58;;;;;;;12.43;100.00;99134.78;5092349;28;20089;-68
2022/11/15 16:46:30;;;;;;;3.47;2.63;;;;;;;12.41;100.00;99128.00;5092298;28;20378;-68
2022/11/15 16:48:56;;;;;;;4.40;2.65;;;;;;;12.40;100.00;99129.88;5092255;28;20058;-68
2022/11/15 16:51:22;;;;;;;2.60;1.98;;;;;;;12.40;100.00;99123.72;5091883;28;20032;-68
2022/11/15 16:53:48;;;;;;;3.25;1.90;;;;;;;12.39;100.00;99117.56;5092279;28;20044;-68
2022/11/15 16:56:18;;;;;;;5.40;1.83;;;;;;;12.46;100.00;99128.22;5092076;28;20120;-68
2022/11/15 16:58:43;;;;;;;4.20;2.63;;;;;;;12.48;100.00;99129.63;5092313;28;20028;-68
2022/11/15 17:01:16;;;;;;;2.92;2.05;;;;;;;12.47;100.00;99119.97;5091792;28;20040;-68
2022/11/15 17:03:41;;;;;;;2.90;1.63;;;;;;;12.57;100.00;99130.19;5091984;28;20035;-68
2022/11/15 17:06:09;;;;;;;3.13;2.08;;;;;;;12.60;100.00;99121.75;5091940;28;20039;-68
2022/11/15 17:08:34;;;;;;;4.13;2.95;;;;;;;12.69;100.00;99119.66;5092103;28;20054;-68
2022/11/15 17:10:59;;;;;;;3.20;1.83;;;;;;;12.69;100.00;99115.13;5091687;28;20040;-68
2022/11/15 17:13:25;;;;;;;2.92;1.73;;;;;;;12.70;100.00;99111.41;5092122;28;20048;-68
2022/11/15 17:16:02;;;;;;;1.60;1.20;;;;;;;12.81;95.98;99109.09;5091609;28;20040;-68
2022/11/15 17:18:28;;;;;;;3.65;2.03;;;;;;;12.84;98.11;99108.66;5090474;28;20050;-68
2022/11/15 17:20:53;;;;;;;3.45;1.48;;;;;;;12.86;95.62;99106.63;5091308;28;20032;-68
2022/11/15 17:23:18;;;;;;;3.08;1.75;;;;;;;12.98;93.70;99105.72;5091837;28;20503;-68
2022/11/15 17:25:44;;;;;;;2.45;1.70;;;;;;;12.98;94.76;99102.22;5092237;28;20040;-68
2022/11/15 17:28:09;;;;;;;4.30;1.92;;;;;;;13.04;92.26;99098.69;5092734;28;20062;-67
2022/11/15 17:30:35;;;;;;;4.05;2.25;;;;;;;13.10;91.45;99102.31;5091506;28;20497;-68
2022/11/15 17:33:00;;;;;;;3.17;1.80;;;;;;;13.12;90.89;99095.75;5091824;28;20048;-68
2022/11/15 17:35:25;;;;;;;2.03;1.67;;;;;;;13.16;91.14;99101.44;5091951;28;20397;-69
2022/11/15 17:37:52;;;;;;;4.25;2.40;;;;;;;13.16;92.43;99096.09;5091663;28;20046;-69
2022/11/15 17:40:17;;;;;;;6.55;3.65;;;;;;;13.12;93.66;99089.56;5091341;28;20118;-68